Time;durP1;ratioP1;P1;durP2;ratioP2;P2;SDS_P1;SDS_P2;PMS_P1;PMS_P2;Temp;Humidity;BMP_temperature;BMP_pressure;BME280_temperature;BME280_humidity;BME280_pressure;Samples;Min_cycle;Max_cycle;Signal;HPM_P1;HPM_P2
2023/05/27 00:01:19;;;;;;;12.02;3.85;;;7.90;99.90;;;;;;5012026;28;20409;-73
2023/05/27 00:03:46;;;;;;;16.95;4.13;;;7.90;99.90;;;;;;5005661;28;20128;-73
2023/05/27 00:06:12;;;;;;;17.10;4.13;;;7.90;99.90;;;;;;4995099;28;20149;-73
2023/05/27 00:08:37;;;;;;;13.13;4.10;;;7.80;99.90;;;;;;5012126;28;20064;-73
2023/05/27 00:11:03;;;;;;;17.40;3.90;;;7.80;99.90;;;;;;5011731;28;20041;-73
2023/05/27 00:13:29;;;;;;;15.20;4.15;;;7.70;99.90;;;;;;5011029;28;20041;-72
2023/05/27 00:15:55;;;;;;;15.15;4.22;;;7.70;99.90;;;;;;5010616;28;20068;-73
2023/05/27 00:18:21;;;;;;;11.43;3.85;;;7.70;99.90;;;;;;5010265;28;20033;-72
2023/05/27 00:20:48;;;;;;;13.98;3.80;;;7.70;99.90;;;;;;5011292;28;20099;-73
2023/05/27 00:23:14;;;;;;;16.33;3.97;;;7.60;99.90;;;;;;5011516;28;20045;-73
2023/05/27 00:25:40;;;;;;;12.25;3.63;;;7.60;99.90;;;;;;5009266;28;20046;-72
2023/05/27 00:28:06;;;;;;;15.38;4.10;;;7.50;99.90;;;;;;5007709;28;20056;-71
2023/05/27 00:30:32;;;;;;;11.25;3.80;;;7.50;99.90;;;;;;5010386;28;20136;-71
2023/05/27 00:32:58;;;;;;;19.83;4.88;;;7.50;99.90;;;;;;5010365;28;20033;-71
2023/05/27 00:35:23;;;;;;;12.77;3.78;;;7.50;99.90;;;;;;5011460;28;20045;-71
2023/05/27 00:37:50;;;;;;;19.00;4.03;;;7.40;99.90;;;;;;5011189;28;20037;-71
2023/05/27 00:40:21;;;;;;;14.95;3.45;;;7.40;99.90;;;;;;5011385;28;20520;-71
2023/05/27 00:42:46;;;;;;;10.30;3.88;;;7.40;99.90;;;;;;5008494;28;20057;-71
2023/05/27 00:45:12;;;;;;;16.17;3.97;;;7.40;99.90;;;;;;5011308;28;20502;-71
2023/05/27 00:47:38;;;;;;;14.25;4.25;;;7.30;99.90;;;;;;5003237;28;20041;-71
2023/05/27 00:50:05;;;;;;;15.50;4.60;;;7.30;99.90;;;;;;5009843;28;20043;-71
2023/05/27 00:52:31;;;;;;;16.17;4.40;;;7.30;99.90;;;;;;5011281;28;20461;-71
2023/05/27 00:54:59;;;;;;;13.55;4.30;;;7.30;99.90;;;;;;5010803;28;20117;-71
2023/05/27 00:57:25;;;;;;;13.27;4.43;;;7.20;99.90;;;;;;5009966;28;20042;-71
2023/05/27 00:59:52;;;;;;;14.25;4.40;;;7.20;99.90;;;;;;5010442;28;20048;-71
2023/05/27 01:02:18;;;;;;;12.10;4.20;;;7.20;99.90;;;;;;5011197;28;20049;-72
2023/05/27 01:04:46;;;;;;;14.57;4.20;;;7.20;99.90;;;;;;5003092;28;20513;-72
2023/05/27 01:07:22;;;;;;;11.55;4.07;;;7.20;99.90;;;;;;5007020;28;20042;-72
2023/05/27 01:10:03;;;;;;;14.10;4.43;;;7.10;99.90;;;;;;5005399;28;20049;-72
2023/05/27 01:12:48;;;;;;;20.70;4.40;;;7.10;99.90;;;;;;5010181;28;20041;-72
2023/05/27 01:15:14;;;;;;;12.93;4.20;;;7.10;99.90;;;;;;5010495;28;20052;-72
2023/05/27 01:17:44;;;;;;;13.43;4.85;;;7.10;99.90;;;;;;5011065;28;20120;-72
2023/05/27 01:20:13;;;;;;;16.98;4.15;;;7.10;99.90;;;;;;5026604;28;20096;-72
2023/05/27 01:22:41;;;;;;;14.98;4.25;;;7.10;99.90;;;;;;5009815;28;20050;-72
2023/05/27 01:25:07;;;;;;;22.83;4.60;;;7.10;99.90;;;;;;5009953;28;20340;-73
2023/05/27 01:27:33;;;;;;;18.25;4.15;;;7.00;99.90;;;;;;5010863;28;20045;-72
2023/05/27 01:29:59;;;;;;;12.73;4.78;;;7.00;99.90;;;;;;5009954;28;20498;-72
2023/05/27 01:32:53;;;;;;;16.17;5.05;;;7.00;99.90;;;;;;5010987;28;20037;-72
2023/05/27 01:35:31;;;;;;;17.67;4.82;;;7.00;99.90;;;;;;5011189;28;20049;-71
2023/05/27 01:38:01;;;;;;;16.05;5.05;;;6.90;99.90;;;;;;5010986;28;20120;-71
2023/05/27 01:40:28;;;;;;;15.05;5.13;;;6.90;99.90;;;;;;5009635;28;20057;-71
2023/05/27 01:42:56;;;;;;;17.33;5.15;;;6.90;99.90;;;;;;4997374;28;20077;-71
2023/05/27 01:45:22;;;;;;;21.23;5.57;;;6.90;99.90;;;;;;5010168;28;20037;-71
2023/05/27 01:47:48;;;;;;;18.25;5.00;;;6.90;99.90;;;;;;5010328;28;20104;-71
2023/05/27 01:50:13;;;;;;;18.52;6.75;;;6.90;99.90;;;;;;5025207;28;20048;-71
2023/05/27 01:52:39;;;;;;;17.77;5.47;;;6.90;99.90;;;;;;5010478;28;20041;-71
2023/05/27 01:55:06;;;;;;;19.02;5.72;;;6.90;99.90;;;;;;5010603;28;20042;-71
2023/05/27 01:57:33;;;;;;;12.23;4.53;;;6.90;99.90;;;;;;5010620;28;20034;-71
2023/05/27 01:59:59;;;;;;;17.20;5.43;;;6.90;99.90;;;;;;5010469;28;20111;-71
2023/05/27 02:02:25;;;;;;;15.85;5.22;;;6.90;99.90;;;;;;5013189;28;20080;-71
2023/05/27 02:04:50;;;;;;;15.35;5.18;;;6.90;99.90;;;;;;5012745;28;20069;-71
2023/05/27 02:07:16;;;;;;;16.55;5.28;;;6.90;99.90;;;;;;5014174;28;20034;-71
2023/05/27 02:09:43;;;;;;;16.90;5.45;;;6.80;99.90;;;;;;5014048;28;20203;-72
2023/05/27 02:12:09;;;;;;;14.52;5.28;;;6.80;99.90;;;;;;5014540;28;20045;-71
2023/05/27 02:14:38;;;;;;;14.05;4.75;;;6.80;99.90;;;;;;4997319;28;20041;-71
2023/05/27 02:17:04;;;;;;;16.83;5.28;;;6.80;99.90;;;;;;5013136;28;20033;-71
2023/05/27 02:19:30;;;;;;;15.90;5.47;;;6.80;99.90;;;;;;5027163;28;20037;-72
2023/05/27 02:21:56;;;;;;;13.15;5.18;;;6.80;99.90;;;;;;5013615;28;20114;-71
2023/05/27 02:24:21;;;;;;;18.75;5.95;;;6.80;99.90;;;;;;5031425;28;20091;-71
2023/05/27 02:26:47;;;;;;;13.38;5.55;;;6.80;99.90;;;;;;5013947;28;20033;-71
2023/05/27 02:29:13;;;;;;;17.60;5.82;;;6.90;99.90;;;;;;5012222;28;20060;-71
2023/05/27 02:31:38;;;;;;;17.95;5.55;;;6.90;99.90;;;;;;4999993;28;20434;-71
2023/05/27 02:34:04;;;;;;;21.50;6.30;;;6.90;99.90;;;;;;4996678;28;20148;-71
2023/05/27 02:36:30;;;;;;;23.05;6.38;;;6.90;99.90;;;;;;5013428;28;20079;-71
2023/05/27 02:38:55;;;;;;;19.85;6.65;;;6.90;99.90;;;;;;5013328;28;20037;-71
2023/05/27 02:41:21;;;;;;;22.75;5.88;;;6.90;99.90;;;;;;5031278;28;20472;-71
2023/05/27 02:43:47;;;;;;;15.27;5.07;;;6.90;99.90;;;;;;5013395;28;20037;-72
2023/05/27 02:46:12;;;;;;;22.83;6.22;;;6.90;99.90;;;;;;5013377;28;20052;-72
2023/05/27 02:48:38;;;;;;;17.50;5.65;;;7.00;99.90;;;;;;5012815;28;20076;-70
2023/05/27 02:51:04;;;;;;;20.60;6.43;;;7.00;99.90;;;;;;5013681;28;20041;-70
2023/05/27 02:53:29;;;;;;;21.35;5.63;;;7.00;99.90;;;;;;5009293;28;20465;-69
2023/05/27 02:55:55;;;;;;;17.10;5.32;;;7.00;99.90;;;;;;5031238;28;20087;-72
2023/05/27 02:58:21;;;;;;;20.98;5.85;;;6.90;99.90;;;;;;5013480;28;20040;-72
2023/05/27 03:00:46;;;;;;;18.08;5.57;;;6.90;99.90;;;;;;5013473;28;20045;-72
2023/05/27 03:03:12;;;;;;;23.50;6.57;;;6.90;99.90;;;;;;5012330;28;20128;-72
2023/05/27 03:05:38;;;;;;;20.77;6.35;;;6.90;99.90;;;;;;5013497;28;20045;-72
2023/05/27 03:08:05;;;;;;;21.05;6.32;;;7.00;99.90;;;;;;5013463;28;20500;-72
2023/05/27 03:10:32;;;;;;;18.00;5.55;;;7.00;99.90;;;;;;5012783;28;20041;-72
2023/05/27 03:12:58;;;;;;;23.48;7.05;;;7.10;99.90;;;;;;5012540;28;20029;-72
2023/05/27 03:15:24;;;;;;;21.83;6.68;;;7.10;99.90;;;;;;5012919;28;20043;-72
2023/05/27 03:17:49;;;;;;;18.77;5.85;;;7.20;99.90;;;;;;5011992;28;20499;-72
2023/05/27 03:20:18;;;;;;;15.48;5.65;;;7.20;99.90;;;;;;5012555;28;20045;-72
2023/05/27 03:22:44;;;;;;;20.40;5.38;;;7.20;99.90;;;;;;5030999;28;20505;-72
2023/05/27 03:25:11;;;;;;;20.13;5.65;;;7.20;99.90;;;;;;5011530;28;20469;-72
2023/05/27 03:27:37;;;;;;;21.23;5.85;;;7.30;99.90;;;;;;5012904;28;20041;-72
2023/05/27 03:30:04;;;;;;;17.98;5.40;;;7.30;99.90;;;;;;5012188;28;20053;-71
2023/05/27 03:32:30;;;;;;;21.38;5.95;;;7.30;99.90;;;;;;5012783;28;20068;-72
2023/05/27 03:34:56;;;;;;;20.50;5.68;;;7.30;99.90;;;;;;5011621;28;20033;-71
2023/05/27 03:37:21;;;;;;;24.27;6.15;;;7.30;99.90;;;;;;5013108;28;20116;-72
2023/05/27 03:39:47;;;;;;;23.10;6.15;;;7.30;99.90;;;;;;5011784;28;20072;-71
2023/05/27 03:42:13;;;;;;;29.60;6.13;;;7.20;99.90;;;;;;5012906;28;20501;-71
2023/05/27 03:44:38;;;;;;;23.83;6.18;;;7.20;99.90;;;;;;5011988;28;20045;-71
2023/05/27 03:47:05;;;;;;;20.45;5.35;;;7.20;99.90;;;;;;5012932;28;20041;-72
2023/05/27 03:49:30;;;;;;;14.13;5.22;;;7.20;99.90;;;;;;5011019;28;20150;-71
2023/05/27 03:51:56;;;;;;;17.65;6.07;;;7.20;99.90;;;;;;5012937;28;20120;-72
2023/05/27 03:54:22;;;;;;;21.10;6.05;;;7.20;99.90;;;;;;5012014;28;20041;-71
2023/05/27 03:56:48;;;;;;;21.65;6.10;;;7.30;99.90;;;;;;5012296;28;20048;-71
2023/05/27 03:59:14;;;;;;;20.42;5.78;;;7.30;99.90;;;;;;5012091;28;20084;-71
2023/05/27 04:01:40;;;;;;;22.00;5.55;;;7.40;99.90;;;;;;5012708;28;20134;-72
2023/05/27 04:04:06;;;;;;;22.88;6.45;;;7.40;99.90;;;;;;4994901;28;20049;-71
2023/05/27 04:06:33;;;;;;;20.83;5.75;;;7.50;99.90;;;;;;5012470;28;20056;-71
2023/05/27 04:08:58;;;;;;;23.70;6.43;;;7.50;99.90;;;;;;5011908;28;20115;-71
2023/05/27 04:11:27;;;;;;;21.10;6.03;;;7.60;99.90;;;;;;5012035;28;20073;-71
2023/05/27 04:13:52;;;;;;;19.50;6.05;;;7.70;99.90;;;;;;4994261;28;20110;-71
2023/05/27 04:16:18;;;;;;;21.25;5.00;;;7.80;99.90;;;;;;5012102;28;20104;-72
2023/05/27 04:18:48;;;;;;;22.23;5.85;;;7.80;99.90;;;;;;5010289;28;20038;-72
2023/05/27 04:21:15;;;;;;;16.85;5.70;;;7.90;99.90;;;;;;5012274;28;20370;-72
2023/05/27 04:23:40;;;;;;;21.15;6.03;;;8.00;99.90;;;;;;5028780;28;20038;-71
2023/05/27 04:26:06;;;;;;;16.92;5.28;;;8.00;99.90;;;;;;5009911;28;20556;-72
2023/05/27 04:28:34;;;;;;;16.95;4.45;;;8.10;99.90;;;;;;5011856;28;20037;-71
2023/05/27 04:31:00;;;;;;;21.52;5.85;;;8.20;99.90;;;;;;5011461;28;20061;-72
2023/05/27 04:33:26;;;;;;;18.55;5.50;;;8.30;99.90;;;;;;5010926;28;20047;-72
2023/05/27 04:35:53;;;;;;;21.38;5.82;;;8.40;99.90;;;;;;5029629;28;20045;-72
2023/05/27 04:38:20;;;;;;;16.67;4.82;;;8.50;99.90;;;;;;5028619;28;20041;-71
2023/05/27 04:40:52;;;;;;;17.80;5.25;;;8.50;99.90;;;;;;5011722;28;20132;-72
2023/05/27 04:43:18;;;;;;;23.48;5.88;;;8.60;99.90;;;;;;5009163;28;20052;-71
2023/05/27 04:45:45;;;;;;;20.45;5.75;;;8.70;99.90;;;;;;5011767;28;20060;-72
2023/05/27 04:48:11;;;;;;;17.83;5.45;;;8.80;99.90;;;;;;5010832;28;20119;-71
2023/05/27 04:50:37;;;;;;;17.65;4.75;;;8.80;99.90;;;;;;5011337;28;20046;-72
2023/05/27 04:53:03;;;;;;;17.98;5.47;;;9.00;99.90;;;;;;5010318;28;20457;-72
2023/05/27 04:55:30;;;;;;;17.98;5.15;;;9.20;99.90;;;;;;5011460;28;20129;-72
2023/05/27 04:57:56;;;;;;;18.13;4.90;;;9.40;99.90;;;;;;5011253;28;20313;-72
2023/05/27 05:00:35;;;;;;;20.83;5.10;;;9.60;99.90;;;;;;5011474;28;20129;-72
2023/05/27 05:03:02;;;;;;;18.40;5.50;;;9.80;99.90;;;;;;5010319;28;20045;-72
2023/05/27 05:05:28;;;;;;;16.85;4.70;;;10.10;99.90;;;;;;5011112;28;20045;-72
2023/05/27 05:07:54;;;;;;;18.38;4.95;;;10.30;99.90;;;;;;5011598;28;20090;-71
2023/05/27 05:10:20;;;;;;;19.50;4.88;;;10.60;99.90;;;;;;4993627;28;20038;-72
2023/05/27 05:12:45;;;;;;;18.77;4.72;;;10.70;99.90;;;;;;5004980;28;20037;-72
2023/05/27 05:15:11;;;;;;;21.42;5.00;;;10.80;99.90;;;;;;5011463;28;20090;-72
2023/05/27 05:17:37;;;;;;;18.77;3.97;;;10.80;99.90;;;;;;5011234;28;20045;-72
2023/05/27 05:20:04;;;;;;;17.30;5.35;;;10.90;99.90;;;;;;5000640;28;20041;-72
2023/05/27 05:22:30;;;;;;;18.95;4.78;;;10.90;99.90;;;;;;5009614;28;20437;-72
2023/05/27 05:24:55;;;;;;;17.05;4.82;;;10.80;99.90;;;;;;5006928;28;20037;-71
2023/05/27 05:27:21;;;;;;;16.50;4.40;;;10.70;99.90;;;;;;5008195;28;20048;-72
2023/05/27 05:29:47;;;;;;;18.50;4.20;;;10.60;99.90;;;;;;5008186;28;20677;-71
2023/05/27 05:32:13;;;;;;;13.77;4.10;;;10.60;99.90;;;;;;5009182;28;20183;-72
2023/05/27 05:34:39;;;;;;;20.67;4.95;;;10.60;99.90;;;;;;5008471;28;20045;-71
2023/05/27 05:37:06;;;;;;;15.73;4.07;;;10.50;99.90;;;;;;5010785;28;20037;-71
2023/05/27 05:39:32;;;;;;;19.40;4.13;;;10.60;99.90;;;;;;5010712;28;20105;-70
2023/05/27 05:41:58;;;;;;;19.88;4.97;;;10.50;99.90;;;;;;5013800;28;20104;-70
2023/05/27 05:44:25;;;;;;;17.88;3.95;;;10.50;99.90;;;;;;5029811;28;20556;-70
2023/05/27 05:46:51;;;;;;;19.38;3.72;;;10.50;99.90;;;;;;5011615;28;20033;-70
2023/05/27 05:49:18;;;;;;;22.35;4.82;;;10.40;99.90;;;;;;5009443;28;20045;-71
2023/05/27 05:51:44;;;;;;;18.48;4.93;;;10.30;99.90;;;;;;5012621;28;20037;-70
2023/05/27 05:54:09;;;;;;;14.13;4.60;;;10.30;99.90;;;;;;5012126;28;20045;-70
2023/05/27 05:56:35;;;;;;;18.42;4.38;;;10.20;99.90;;;;;;5011662;28;20112;-70
2023/05/27 05:59:01;;;;;;;18.33;4.68;;;10.30;99.90;;;;;;5005575;28;20045;-71
2023/05/27 06:01:27;;;;;;;19.58;4.47;;;10.30;99.90;;;;;;5012504;28;20041;-71
2023/05/27 06:03:53;;;;;;;21.13;5.18;;;10.50;99.90;;;;;;5005979;28;20512;-71
2023/05/27 06:06:19;;;;;;;17.30;4.18;;;10.60;99.90;;;;;;5009674;28;20127;-71
2023/05/27 06:08:45;;;;;;;23.73;4.45;;;10.80;99.90;;;;;;5012146;28;20128;-71
2023/05/27 06:11:11;;;;;;;16.02;3.75;;;10.90;99.90;;;;;;5010327;28;20042;-71
2023/05/27 06:13:37;;;;;;;19.33;4.03;;;11.00;99.90;;;;;;5010862;28;20065;-70
2023/05/27 06:16:03;;;;;;;24.80;4.97;;;11.00;99.90;;;;;;5007005;28;20131;-71
2023/05/27 06:18:29;;;;;;;24.73;4.57;;;11.00;99.90;;;;;;5008865;28;20140;-71
2023/05/27 06:20:55;;;;;;;20.15;5.43;;;11.00;99.90;;;;;;5008076;28;20053;-71
2023/05/27 06:23:21;;;;;;;17.38;4.75;;;11.00;99.90;;;;;;5006237;28;20338;-71
2023/05/27 06:25:47;;;;;;;21.52;4.88;;;11.00;99.90;;;;;;5008843;28;20521;-71
2023/05/27 06:28:12;;;;;;;18.15;4.85;;;10.90;99.90;;;;;;5011502;28;20041;-71
2023/05/27 06:30:39;;;;;;;16.85;4.53;;;10.90;99.90;;;;;;4991550;28;20648;-71
2023/05/27 06:33:05;;;;;;;15.02;4.40;;;10.80;99.90;;;;;;5007979;28;20068;-71
2023/05/27 06:35:31;;;;;;;22.52;5.18;;;10.80;99.90;;;;;;5009751;28;20100;-72
2023/05/27 06:37:58;;;;;;;23.00;5.50;;;10.90;99.90;;;;;;5010167;28;20041;-72
2023/05/27 06:40:24;;;;;;;18.05;4.60;;;11.10;99.90;;;;;;5010010;28;20041;-72
2023/05/27 06:42:50;;;;;;;17.35;3.95;;;11.30;99.90;;;;;;5007552;28;20056;-73
2023/05/27 06:45:16;;;;;;;19.92;7.10;;;11.40;99.90;;;;;;4990442;28;20044;-72
2023/05/27 06:47:42;;;;;;;15.63;4.55;;;11.70;99.90;;;;;;5006311;28;20033;-72
2023/05/27 06:50:08;;;;;;;23.40;6.15;;;11.80;99.90;;;;;;5005198;28;20041;-72
2023/05/27 06:52:33;;;;;;;18.25;4.32;;;12.10;99.90;;;;;;5009659;28;20088;-73
2023/05/27 06:55:00;;;;;;;23.05;4.68;;;12.20;99.90;;;;;;5006702;28;20477;-73
2023/05/27 06:57:25;;;;;;;20.65;4.85;;;12.40;99.90;;;;;;5005078;28;20486;-72
2023/05/27 06:59:51;;;;;;;21.35;4.63;;;12.50;99.90;;;;;;5008202;28;20045;-72
2023/05/27 07:02:17;;;;;;;20.52;4.20;;;12.50;99.90;;;;;;5009364;28;20564;-72
2023/05/27 07:04:43;;;;;;;18.13;4.20;;;12.60;99.90;;;;;;5004097;28;20041;-72
2023/05/27 07:07:11;;;;;;;19.40;4.70;;;12.60;99.90;;;;;;5012100;28;20053;-72
2023/05/27 07:09:37;;;;;;;18.20;4.68;;;12.80;99.90;;;;;;5006583;28;20061;-72
2023/05/27 07:12:03;;;;;;;13.77;3.53;;;12.80;99.90;;;;;;5004707;28;20096;-72
2023/05/27 07:14:28;;;;;;;15.05;3.60;;;13.00;99.90;;;;;;5005301;28;20045;-73
2023/05/27 07:16:55;;;;;;;20.08;6.47;;;13.10;99.90;;;;;;5008770;28;20096;-73
2023/05/27 07:19:22;;;;;;;17.23;4.53;;;13.30;99.90;;;;;;5002007;28;20026;-73
2023/05/27 07:21:51;;;;;;;18.50;4.00;;;13.40;99.90;;;;;;5004103;28;20472;-72
2023/05/27 07:24:17;;;;;;;15.95;3.40;;;13.50;99.90;;;;;;5003997;28;20045;-73
2023/05/27 07:26:42;;;;;;;18.35;4.45;;;13.60;99.90;;;;;;5007683;28;20040;-72
2023/05/27 07:29:08;;;;;;;16.85;4.35;;;13.60;99.90;;;;;;5009301;28;20385;-73
2023/05/27 07:31:34;;;;;;;22.25;4.70;;;13.60;99.90;;;;;;5006836;28;20494;-72
2023/05/27 07:34:05;;;;;;;13.63;4.13;;;13.80;99.90;;;;;;5008778;28;20476;-73
2023/05/27 07:36:31;;;;;;;17.45;4.80;;;13.80;99.90;;;;;;5008166;28;20051;-73
2023/05/27 07:38:57;;;;;;;21.73;4.35;;;13.90;99.90;;;;;;5008954;28;20037;-72
2023/05/27 07:41:23;;;;;;;14.90;4.22;;;14.00;99.90;;;;;;5008025;28;20049;-73
2023/05/27 07:43:52;;;;;;;22.10;4.22;;;13.90;99.90;;;;;;5009674;28;20344;-73
2023/05/27 07:46:17;;;;;;;17.05;4.68;;;14.00;99.90;;;;;;5007318;28;20043;-72
2023/05/27 07:48:43;;;;;;;17.40;3.85;;;14.10;99.90;;;;;;5009842;28;20120;-73
2023/05/27 07:51:09;;;;;;;19.80;3.75;;;14.30;99.90;;;;;;4991720;28;20080;-73
2023/05/27 07:53:36;;;;;;;13.52;4.50;;;14.40;99.90;;;;;;5019055;28;20427;-73
2023/05/27 07:56:01;;;;;;;16.65;4.60;;;14.60;99.90;;;;;;5006425;28;20265;-73
2023/05/27 07:58:28;;;;;;;17.85;4.05;;;14.70;99.90;;;;;;5008030;28;20046;-73
2023/05/27 08:00:54;;;;;;;15.00;3.92;;;14.80;99.90;;;;;;5006667;28;20049;-74
2023/05/27 08:03:20;;;;;;;15.88;4.57;;;14.90;99.90;;;;;;5010324;28;20331;-73
2023/05/27 08:05:46;;;;;;;14.60;3.88;;;14.90;99.90;;;;;;5008399;28;20046;-72
2023/05/27 08:08:11;;;;;;;20.15;4.32;;;15.00;99.90;;;;;;5011395;28;20125;-72
2023/05/27 08:10:37;;;;;;;22.25;5.45;;;15.10;99.90;;;;;;5011791;28;20048;-73
2023/05/27 08:13:03;;;;;;;14.98;4.10;;;15.30;99.90;;;;;;5011852;28;20117;-73
2023/05/27 08:15:28;;;;;;;14.57;4.43;;;15.50;99.90;;;;;;5013101;28;20071;-73
2023/05/27 08:17:54;;;;;;;13.77;3.80;;;15.70;99.90;;;;;;5011357;28;20091;-73
2023/05/27 08:20:20;;;;;;;14.93;3.70;;;15.90;99.90;;;;;;5003045;28;20472;-73
2023/05/27 08:22:46;;;;;;;18.05;4.45;;;16.10;99.90;;;;;;5030666;28;20033;-73
2023/05/27 08:25:11;;;;;;;17.00;4.45;;;16.30;99.90;;;;;;5012869;28;20404;-73
2023/05/27 08:27:46;;;;;;;14.63;4.32;;;16.40;99.90;;;;;;5002902;28;20052;-72
2023/05/27 08:30:13;;;;;;;14.38;4.53;;;16.50;99.90;;;;;;5010388;28;20049;-73
2023/05/27 08:32:41;;;;;;;18.92;4.82;;;16.40;99.90;;;;;;5010344;28;20045;-73
2023/05/27 08:35:07;;;;;;;17.15;4.18;;;16.30;99.90;;;;;;5002053;28;20449;-73
2023/05/27 08:37:32;;;;;;;12.68;4.28;;;16.60;99.90;;;;;;5012534;28;20534;-73
2023/05/27 08:39:58;;;;;;;15.70;5.00;;;16.80;99.90;;;;;;5004249;28;20037;-73
2023/05/27 08:42:27;;;;;;;17.25;4.57;;;16.80;99.90;;;;;;5002874;28;20084;-73
2023/05/27 08:44:53;;;;;;;13.40;4.22;;;16.90;99.90;;;;;;5011501;28;20049;-73
2023/05/27 08:47:19;;;;;;;16.63;4.30;;;17.20;99.90;;;;;;5008998;28;20110;-74
2023/05/27 08:49:45;;;;;;;14.63;4.20;;;17.40;99.90;;;;;;5008724;28;20632;-74
2023/05/27 08:52:15;;;;;;;11.70;4.00;;;17.70;99.90;;;;;;5025323;28;20397;-74
2023/05/27 08:54:44;;;;;;;17.38;4.88;;;18.00;99.90;;;;;;5023215;28;20056;-74
2023/05/27 08:57:12;;;;;;;15.07;4.03;;;18.10;99.90;;;;;;5021684;28;20121;-73
2023/05/27 08:59:39;;;;;;;16.33;4.82;;;18.40;99.90;;;;;;4985469;28;20041;-74
2023/05/27 09:02:11;;;;;;;16.42;5.32;;;18.70;99.90;;;;;;5009155;28;20120;-73
2023/05/27 09:04:41;;;;;;;14.82;4.60;;;19.00;99.90;;;;;;5006767;28;20040;-73
2023/05/27 09:07:07;;;;;;;13.80;4.47;;;19.20;99.90;;;;;;5009776;28;20041;-71
2023/05/27 09:09:34;;;;;;;17.67;4.93;;;19.40;99.90;;;;;;5010655;28;20504;-73
2023/05/27 09:12:03;;;;;;;13.82;4.47;;;19.40;97.60;;;;;;5013590;28;20441;-74
2023/05/27 09:14:29;;;;;;;13.00;4.53;;;19.40;98.60;;;;;;5015610;28;20037;-74
2023/05/27 09:17:10;;;;;;;13.80;4.72;;;19.80;99.20;;;;;;5014560;28;20127;-73
2023/05/27 09:19:36;;;;;;;15.77;5.13;;;20.00;97.10;;;;;;5011798;28;20045;-74
2023/05/27 09:22:01;;;;;;;14.80;5.13;;;20.00;96.70;;;;;;5013778;28;20029;-74
2023/05/27 09:24:27;;;;;;;13.25;5.07;;;20.00;95.60;;;;;;5015280;28;20037;-77
2023/05/27 09:26:55;;;;;;;14.10;4.88;;;20.10;96.70;;;;;;4997993;28;20342;-74
2023/05/27 09:29:24;;;;;;;13.70;4.82;;;20.30;95.70;;;;;;5011291;28;20062;-75
2023/05/27 09:31:54;;;;;;;13.25;4.35;;;20.40;94.60;;;;;;4995240;28;20088;-75
2023/05/27 09:34:20;;;;;;;13.90;5.00;;;20.30;96.10;;;;;;5009303;28;20121;-75
2023/05/27 09:36:50;;;;;;;14.82;4.93;;;20.50;96.30;;;;;;5009393;28;20548;-76
2023/05/27 09:39:22;;;;;;;16.42;5.03;;;20.80;95.70;;;;;;5008819;28;20141;-76
2023/05/27 09:41:55;;;;;;;16.40;4.97;;;21.00;93.90;;;;;;5006193;28;20038;-75
2023/05/27 09:44:21;;;;;;;15.48;5.13;;;20.80;92.40;;;;;;5005941;28;20052;-74
2023/05/27 09:46:49;;;;;;;13.23;5.03;;;20.80;92.30;;;;;;5006417;28;20045;-74
2023/05/27 09:49:17;;;;;;;12.70;4.93;;;20.70;90.30;;;;;;5007332;28;20075;-74
2023/05/27 09:51:45;;;;;;;16.20;4.75;;;20.40;90.20;;;;;;5008682;28;20497;-74
2023/05/27 09:54:17;;;;;;;14.20;4.78;;;20.30;91.20;;;;;;5010913;28;20490;-74
2023/05/27 09:56:45;;;;;;;14.15;4.90;;;20.40;91.00;;;;;;5011065;28;20458;-73
2023/05/27 09:59:12;;;;;;;15.82;5.13;;;20.30;90.50;;;;;;5006982;28;20053;-73
2023/05/27 10:01:39;;;;;;;13.18;4.93;;;20.30;90.30;;;;;;5007678;28;20049;-74
2023/05/27 10:04:06;;;;;;;12.88;4.35;;;20.50;91.80;;;;;;5008670;28;20502;-73
2023/05/27 10:06:33;;;;;;;14.02;4.75;;;20.80;91.50;;;;;;5011173;28;20046;-73
2023/05/27 10:09:03;;;;;;;15.82;5.43;;;21.10;87.50;;;;;;5009103;28;20073;-73
2023/05/27 10:11:38;;;;;;;14.23;5.05;;;21.00;84.90;;;;;;5025894;28;20523;-73
2023/05/27 10:14:07;;;;;;;13.85;4.75;;;20.90;87.60;;;;;;4987963;28;20053;-73
2023/05/27 10:16:34;;;;;;;53.17;46.90;;;21.00;85.60;;;;;;5007875;28;20494;-74
2023/05/27 10:19:00;;;;;;;13.57;5.22;;;21.00;87.30;;;;;;5004734;28;20072;-74
2023/05/27 10:21:33;;;;;;;16.25;5.20;;;21.30;88.30;;;;;;5007505;28;20115;-73
2023/05/27 10:24:01;;;;;;;11.15;4.40;;;21.60;83.50;;;;;;5003768;28;20045;-74
2023/05/27 10:26:42;;;;;;;13.35;4.55;;;21.50;79.40;;;;;;5004606;28;20038;-74
2023/05/27 10:29:13;;;;;;;12.13;4.40;;;21.50;78.10;;;;;;5007487;28;20053;-74
2023/05/27 10:31:49;;;;;;;13.70;5.00;;;21.50;80.10;;;;;;5010203;28;20037;-73
2023/05/27 10:34:15;;;;;;;13.25;4.53;;;21.70;78.10;;;;;;5023378;28;20052;-73
2023/05/27 10:36:41;;;;;;;11.57;4.88;;;21.50;81.60;;;;;;5011515;28;20045;-73
2023/05/27 10:39:18;;;;;;;13.88;5.15;;;21.70;81.20;;;;;;5009046;28;20512;-73
2023/05/27 10:41:50;;;;;;;11.35;4.45;;;21.70;80.50;;;;;;5010909;28;20037;-74
2023/05/27 10:44:35;;;;;;;17.35;5.20;;;21.70;81.80;;;;;;5008073;28;20567;-74
2023/05/27 10:47:13;;;;;;;13.32;5.22;;;22.00;77.90;;;;;;5010487;28;20049;-74
2023/05/27 10:49:40;;;;;;;12.57;4.43;;;22.10;79.30;;;;;;5008677;28;20049;-71
2023/05/27 10:52:12;;;;;;;11.65;4.80;;;22.20;78.50;;;;;;5027217;28;20039;-70
2023/05/27 10:54:48;;;;;;;11.43;4.10;;;22.40;78.70;;;;;;5031843;28;20044;-71
2023/05/27 10:57:14;;;;;;;11.80;4.13;;;22.70;80.80;;;;;;5026439;28;20038;-70
2023/05/27 10:59:47;;;;;;;13.55;4.95;;;22.80;75.40;;;;;;5010091;28;20084;-70
2023/05/27 11:02:13;;;;;;;14.38;4.72;;;22.70;73.90;;;;;;5030700;28;20072;-70
2023/05/27 11:04:40;;;;;;;10.43;4.15;;;22.50;74.80;;;;;;5031749;28;20625;-70
2023/05/27 11:07:06;;;;;;;14.57;5.10;;;22.40;75.00;;;;;;5012753;28;20046;-69
2023/05/27 11:09:45;;;;;;;14.48;5.13;;;22.50;75.00;;;;;;5032111;28;20111;-71
2023/05/27 11:12:16;;;;;;;14.88;4.82;;;22.70;72.90;;;;;;5031558;28;20065;-71
2023/05/27 11:14:43;;;;;;;13.82;5.45;;;22.70;77.00;;;;;;5010038;28;20072;-70
2023/05/27 11:17:12;;;;;;;12.40;4.85;;;22.80;72.80;;;;;;5031017;28;20452;-71
2023/05/27 11:19:42;;;;;;;13.73;5.30;;;22.70;73.30;;;;;;5002829;28;20041;-71
2023/05/27 11:22:09;;;;;;;15.00;4.93;;;22.60;72.70;;;;;;5006201;28;20124;-72
2023/05/27 11:24:36;;;;;;;14.90;5.13;;;22.70;74.70;;;;;;5012714;28;20037;-71
2023/05/27 11:27:09;;;;;;;14.55;4.55;;;22.90;71.80;;;;;;5010830;28;20168;-72
2023/05/27 11:29:36;;;;;;;12.82;4.90;;;22.90;73.60;;;;;;5001927;28;20085;-71
2023/05/27 11:32:02;;;;;;;13.82;4.80;;;23.20;74.70;;;;;;5002140;28;20057;-72
2023/05/27 11:34:28;;;;;;;13.43;4.40;;;23.20;72.10;;;;;;5008461;28;20037;-72
2023/05/27 11:36:55;;;;;;;12.27;4.50;;;23.40;70.30;;;;;;5009659;28;20053;-71
2023/05/27 11:39:21;;;;;;;10.75;4.50;;;23.70;71.60;;;;;;5007525;28;20513;-70
2023/05/27 11:41:53;;;;;;;14.13;4.25;;;23.60;68.30;;;;;;5009548;28;20065;-71
2023/05/27 11:44:24;;;;;;;13.52;4.15;;;23.30;70.20;;;;;;5025596;28;20057;-74
2023/05/27 11:46:52;;;;;;;13.43;4.25;;;23.50;70.80;;;;;;5006887;28;20034;-73
2023/05/27 11:49:19;;;;;;;11.23;4.38;;;23.70;67.10;;;;;;5007201;28;20050;-73
2023/05/27 11:51:47;;;;;;;14.13;4.53;;;23.70;65.00;;;;;;5010032;28;20041;-72
2023/05/27 11:54:22;;;;;;;16.00;5.32;;;23.70;65.90;;;;;;5009887;28;20034;-75
2023/05/27 11:56:48;;;;;;;16.02;5.15;;;23.60;65.10;;;;;;5010333;28;20094;-75
2023/05/27 11:59:14;;;;;;;10.70;4.40;;;23.60;64.50;;;;;;5011943;28;20490;-75
2023/05/27 12:01:41;;;;;;;13.07;4.38;;;23.80;64.80;;;;;;5010987;28;20486;-76
2023/05/27 12:04:07;;;;;;;11.55;4.65;;;23.50;66.30;;;;;;5010574;28;20120;-75
2023/05/27 12:06:33;;;;;;;11.80;4.78;;;23.50;64.20;;;;;;5011317;28;20052;-76
2023/05/27 12:08:58;;;;;;;13.63;4.70;;;23.40;64.00;;;;;;4994229;28;20406;-79
2023/05/27 12:11:24;;;;;;;11.20;3.97;;;23.50;65.50;;;;;;5009953;28;20041;-75
2023/05/27 12:13:52;;;;;;;10.40;3.67;;;23.70;66.70;;;;;;5009478;28;20042;-75
2023/05/27 12:16:18;;;;;;;12.88;4.63;;;23.90;64.20;;;;;;5003330;28;20038;-75
2023/05/27 12:18:45;;;;;;;9.05;4.40;;;23.80;62.90;;;;;;5009779;28;20376;-74
2023/05/27 12:21:11;;;;;;;9.88;3.97;;;23.90;60.70;;;;;;4992682;28;20038;-73
2023/05/27 12:23:37;;;;;;;10.77;4.40;;;23.90;62.00;;;;;;5008718;28;20041;-74
2023/05/27 12:26:03;;;;;;;12.35;4.85;;;24.00;62.40;;;;;;5006589;28;20623;-76
2023/05/27 12:28:28;;;;;;;11.70;4.18;;;24.00;63.20;;;;;;5023710;28;20068;-75
2023/05/27 12:30:55;;;;;;;12.32;4.00;;;24.00;61.90;;;;;;5009209;28;20046;-77
2023/05/27 12:33:20;;;;;;;11.35;4.25;;;24.00;60.70;;;;;;5012469;28;20528;-74
2023/05/27 12:35:46;;;;;;;10.50;4.07;;;23.60;62.80;;;;;;5009724;28;20129;-75
2023/05/27 12:38:12;;;;;;;12.73;4.38;;;23.50;63.00;;;;;;5009668;28;20030;-75
2023/05/27 12:40:38;;;;;;;10.45;4.30;;;23.50;60.40;;;;;;5008779;28;20088;-76